createdAt,value
2023-03-23T15:59:09.478Z,97651.19
2023-03-23T16:01:37.727Z,97651.28
2023-03-23T16:04:22.424Z,97650.50
2023-03-23T16:06:51.924Z,97650.41
2023-03-23T16:09:20.649Z,97644.94
2023-03-23T16:11:47.385Z,97652.25
2023-03-23T16:14:14.162Z,97653.63
2023-03-23T16:16:50.835Z,97654.59
2023-03-23T16:19:20.271Z,97648.75
2023-03-23T16:21:46.960Z,97652.16
2023-03-23T16:24:13.464Z,97648.16
2023-03-23T16:26:40.770Z,97664.00
2023-03-23T16:29:22.312Z,97659.31
2023-03-23T16:31:55.347Z,97654.19
2023-03-23T16:34:21.848Z,97660.66
2023-03-23T16:36:48.351Z,97660.78
2023-03-23T16:39:18.942Z,97659.78
2023-03-23T16:41:45.713Z,97657.97
2023-03-23T16:44:12.591Z,97658.97
2023-03-23T16:46:39.558Z,97662.91
2023-03-23T16:49:06.020Z,97653.22
2023-03-23T16:51:32.660Z,97662.31
2023-03-23T16:53:59.169Z,97658.56
2023-03-23T16:56:25.782Z,97659.28
2023-03-23T16:58:52.224Z,97658.31
2023-03-23T17:01:19.732Z,97652.09
2023-03-23T17:03:46.282Z,97642.81
2023-03-23T17:06:12.962Z,97645.56
2023-03-23T17:08:39.414Z,97639.16
2023-03-23T17:11:06.044Z,97643.91
2023-03-23T17:13:32.850Z,97642.91
2023-03-23T17:15:59.305Z,97638.06
2023-03-23T17:18:25.958Z,97640.88
2023-03-23T17:20:53.502Z,97643.63
2023-03-23T17:23:20.003Z,97647.44
2023-03-23T17:25:47.569Z,97647.69
2023-03-23T17:28:14.453Z,97641.84
2023-03-23T17:30:42.581Z,97645.34
2023-03-23T17:33:09.543Z,97645.59
2023-03-23T17:35:36.202Z,97649.16
2023-03-23T17:38:02.733Z,97641.47
2023-03-23T17:40:29.245Z,97644.16
2023-03-23T17:42:55.817Z,97635.94
2023-03-23T17:45:22.300Z,97629.41
2023-03-23T17:47:48.714Z,97633.78
2023-03-23T17:50:15.453Z,97633.22
2023-03-23T17:52:43.410Z,97630.97
2023-03-23T17:55:11.064Z,97636.88
2023-03-23T17:57:37.666Z,97635.50
2023-03-23T18:00:08.565Z,97631.31
2023-03-23T18:02:36.904Z,97626.44
2023-03-23T18:05:03.769Z,97624.25
2023-03-23T18:07:30.165Z,97622.72
2023-03-23T18:10:00.731Z,97621.19
2023-03-23T18:12:27.523Z,97623.94
2023-03-23T18:14:58.020Z,97635.66
2023-03-23T18:17:24.732Z,97632.59
2023-03-23T18:19:51.242Z,97630.16
2023-03-23T18:22:17.788Z,97632.81
2023-03-23T18:24:44.287Z,97637.31
2023-03-23T18:27:10.836Z,97627.13
2023-03-23T18:29:37.290Z,97629.16
2023-03-23T18:32:03.990Z,97622.66
2023-03-23T18:34:31.987Z,97624.09
2023-03-23T18:36:58.443Z,97621.88
2023-03-23T18:39:24.932Z,97622.16
2023-03-23T18:41:51.471Z,97623.06
2023-03-23T18:44:17.882Z,97624.31
2023-03-23T18:46:44.289Z,97626.97
2023-03-23T18:49:10.699Z,97631.25
2023-03-23T18:51:37.830Z,97631.00
2023-03-23T18:54:04.493Z,97617.38
2023-03-23T18:56:30.940Z,97624.72
2023-03-23T18:58:57.481Z,97625.31
2023-03-23T19:01:23.980Z,97633.50
2023-03-23T19:03:50.442Z,97627.13
2023-03-23T19:06:20.200Z,97619.81
2023-03-23T19:08:48.339Z,97631.91
2023-03-23T19:11:16.025Z,97626.41
2023-03-23T19:13:53.804Z,97629.06
2023-03-23T19:16:25.400Z,97625.13
2023-03-23T19:18:51.877Z,97620.84
2023-03-23T19:21:21.228Z,97617.84
2023-03-23T19:23:51.610Z,97620.19
2023-03-23T19:26:23.871Z,97621.28
2023-03-23T19:31:22.658Z,97616.38
2023-03-23T19:33:49.215Z,97616.44
2023-03-23T19:36:18.438Z,97616.56
2023-03-23T19:38:44.977Z,97619.66
2023-03-23T19:41:12.128Z,97620.69
2023-03-23T19:43:38.752Z,97613.97
2023-03-23T19:46:05.764Z,97611.41
2023-03-23T19:48:33.165Z,97613.22
2023-03-23T19:50:59.599Z,97607.19
2023-03-23T19:53:27.081Z,97614.09
2023-03-23T19:55:53.645Z,97618.38
2023-03-23T19:58:20.837Z,97613.16
2023-03-23T20:00:48.684Z,97613.06
2023-03-23T20:03:16.686Z,97613.97
2023-03-23T20:05:44.274Z,97610.63
2023-03-23T20:08:11.168Z,97605.22
2023-03-23T20:10:38.656Z,97611.53
2023-03-23T20:13:07.216Z,97615.78
2023-03-23T20:15:34.276Z,97603.19
2023-03-23T20:18:01.173Z,97607.38
2023-03-23T20:20:28.633Z,97611.84
2023-03-23T20:22:57.795Z,97603.91
2023-03-23T20:25:25.932Z,97602.94
2023-03-23T20:27:52.761Z,97611.25
2023-03-23T20:30:20.122Z,97604.75
2023-03-23T20:32:46.987Z,97599.06
2023-03-23T20:35:14.583Z,97601.63
2023-03-23T20:37:41.328Z,97603.03
2023-03-23T20:40:13.112Z,97601.41
2023-03-23T20:42:43.639Z,97602.53
2023-03-23T20:45:12.889Z,97602.41
2023-03-23T20:47:40.426Z,97601.22
2023-03-23T20:50:09.013Z,97596.44
2023-03-23T20:52:36.874Z,97598.69
2023-03-23T20:55:06.085Z,97596.63
2023-03-23T20:57:33.022Z,97595.50
2023-03-23T20:59:59.686Z,97590.91
2023-03-23T21:02:29.679Z,97592.56
2023-03-23T21:04:58.176Z,97590.44
2023-03-23T21:07:27.411Z,97595.47
2023-03-23T21:09:53.972Z,97588.50
2023-03-23T21:12:20.544Z,97585.75
2023-03-23T21:14:47.639Z,97582.31
2023-03-23T21:17:14.112Z,97586.50
2023-03-23T21:19:41.363Z,97586.34
2023-03-23T21:22:09.716Z,97584.47
2023-03-23T21:24:37.637Z,97580.78
2023-03-23T21:27:12.192Z,97582.25
2023-03-23T21:29:40.053Z,97579.97
2023-03-23T21:32:08.567Z,97577.31
2023-03-23T21:34:35.991Z,97566.06
2023-03-23T21:37:02.443Z,97575.69
2023-03-23T21:39:28.990Z,97573.09
2023-03-23T21:42:01.787Z,97568.00
2023-03-23T21:44:30.224Z,97568.00
2023-03-23T21:46:56.631Z,97561.88
2023-03-23T21:49:23.109Z,97568.09
2023-03-23T21:51:50.141Z,97562.16
2023-03-23T21:54:17.180Z,97572.50
2023-03-23T21:56:47.525Z,97560.56
2023-03-23T21:59:14.222Z,97574.63
2023-03-23T22:01:40.770Z,97571.38
2023-03-23T22:04:19.644Z,97562.69
2023-03-23T22:07:24.437Z,97561.38
2023-03-23T22:09:57.461Z,97557.59
2023-03-23T22:12:30.628Z,97555.16
2023-03-23T22:15:11.938Z,97555.31
2023-03-23T22:17:39.898Z,97542.00
2023-03-23T22:23:34.558Z,97535.25
2023-03-23T22:32:27.488Z,97525.16
2023-03-23T22:35:21.090Z,97528.72
2023-03-23T22:42:07.657Z,97519.34
2023-03-23T22:45:31.684Z,97513.50
2023-03-23T22:48:34.722Z,97512.56
2023-03-23T22:59:21.470Z,97492.53
2023-03-23T23:08:38.242Z,97477.31
2023-03-23T23:21:01.318Z,97479.06
2023-03-23T23:24:12.911Z,97472.97
2023-03-23T23:33:58.882Z,97458.47
